sensor_id;sensor_type;location;lat;lon;timestamp;pressure;altitude;pressure_sealevel;temperature;humidity
73024;BME280;61199;47.526;8.538;2023-07-31T00:02:04;96636.97;;;20.03;61.46
73024;BME280;61199;47.526;8.538;2023-07-31T00:04:30;96641.38;;;19.96;61.47
73024;BME280;61199;47.526;8.538;2023-07-31T00:06:57;96629.47;;;19.92;61.72
73024;BME280;61199;47.526;8.538;2023-07-31T00:09:23;96637.09;;;19.80;62.41
73024;BME280;61199;47.526;8.538;2023-07-31T00:11:49;96638.03;;;19.73;61.59
73024;BME280;61199;47.526;8.538;2023-07-31T00:14:16;96634.63;;;19.79;62.04
73024;BME280;61199;47.526;8.538;2023-07-31T00:16:42;96644.78;;;19.75;62.89
73024;BME280;61199;47.526;8.538;2023-07-31T00:19:09;96647.19;;;19.70;62.89
73024;BME280;61199;47.526;8.538;2023-07-31T00:21:35;96652.91;;;19.67;63.08
73024;BME280;61199;47.526;8.538;2023-07-31T00:24:02;96650.25;;;19.67;63.39
73024;BME280;61199;47.526;8.538;2023-07-31T00:26:28;96646.66;;;19.60;62.30
73024;BME280;61199;47.526;8.538;2023-07-31T00:28:54;96651.97;;;19.60;63.37
73024;BME280;61199;47.526;8.538;2023-07-31T00:31:21;96642.16;;;19.61;63.16
73024;BME280;61199;47.526;8.538;2023-07-31T00:33:47;96634.72;;;19.56;63.41
73024;BME280;61199;47.526;8.538;2023-07-31T00:36:14;96638.78;;;19.52;63.83
73024;BME280;61199;47.526;8.538;2023-07-31T00:38:40;96645.19;;;19.58;63.55
73024;BME280;61199;47.526;8.538;2023-07-31T00:41:07;96646.38;;;19.55;63.67
73024;BME280;61199;47.526;8.538;2023-07-31T00:43:33;96644.91;;;19.53;64.24
73024;BME280;61199;47.526;8.538;2023-07-31T00:45:59;96633.09;;;19.55;63.59
73024;BME280;61199;47.526;8.538;2023-07-31T00:48:26;96630.53;;;19.47;63.63
73024;BME280;61199;47.526;8.538;2023-07-31T00:50:52;96624.47;;;19.53;63.86
73024;BME280;61199;47.526;8.538;2023-07-31T00:53:19;96629.72;;;19.47;63.35
73024;BME280;61199;47.526;8.538;2023-07-31T00:55:45;96625.66;;;19.51;63.40
73024;BME280;61199;47.526;8.538;2023-07-31T00:58:12;96627.88;;;19.47;63.84
73024;BME280;61199;47.526;8.538;2023-07-31T01:00:39;96631.81;;;19.51;63.68
73024;BME280;61199;47.526;8.538;2023-07-31T01:03:05;96627.41;;;19.44;63.94
73024;BME280;61199;47.526;8.538;2023-07-31T01:08:29;96625.13;;;19.41;64.17
73024;BME280;61199;47.526;8.538;2023-07-31T01:11:07;96626.69;;;19.35;63.94
73024;BME280;61199;47.526;8.538;2023-07-31T01:13:36;96620.19;;;19.38;63.91
73024;BME280;61199;47.526;8.538;2023-07-31T01:16:03;96617.88;;;19.35;63.91
73024;BME280;61199;47.526;8.538;2023-07-31T01:18:29;96613.94;;;19.31;63.63
73024;BME280;61199;47.526;8.538;2023-07-31T01:21:06;96612.94;;;19.32;63.27
73024;BME280;61199;47.526;8.538;2023-07-31T01:26:36;96619.63;;;19.28;63.51
73024;BME280;61199;47.526;8.538;2023-07-31T01:31:53;96611.25;;;19.16;63.82
73024;BME280;61199;47.526;8.538;2023-07-31T01:34:21;96600.81;;;19.15;63.26
73024;BME280;61199;47.526;8.538;2023-07-31T01:36:48;96603.66;;;19.13;63.09
73024;BME280;61199;47.526;8.538;2023-07-31T01:39:15;96601.66;;;19.15;63.34
73024;BME280;61199;47.526;8.538;2023-07-31T01:41:42;96601.59;;;19.23;63.33
73024;BME280;61199;47.526;8.538;2023-07-31T01:44:08;96598.72;;;19.25;63.61
73024;BME280;61199;47.526;8.538;2023-07-31T01:46:34;96599.28;;;19.20;63.67
73024;BME280;61199;47.526;8.538;2023-07-31T01:49:01;96588.91;;;19.11;63.98
73024;BME280;61199;47.526;8.538;2023-07-31T01:51:27;96591.75;;;19.09;64.61
73024;BME280;61199;47.526;8.538;2023-07-31T01:53:54;96582.03;;;19.02;64.97
73024;BME280;61199;47.526;8.538;2023-07-31T01:56:20;96585.97;;;19.06;64.48
73024;BME280;61199;47.526;8.538;2023-07-31T01:58:46;96578.00;;;19.06;64.65
73024;BME280;61199;47.526;8.538;2023-07-31T02:01:13;96582.03;;;19.02;64.97
73024;BME280;61199;47.526;8.538;2023-07-31T02:03:39;96586.44;;;18.95;64.41
73024;BME280;61199;47.526;8.538;2023-07-31T02:06:06;96584.78;;;18.94;64.60
73024;BME280;61199;47.526;8.538;2023-07-31T02:08:32;96581.13;;;18.95;64.96
73024;BME280;61199;47.526;8.538;2023-07-31T02:10:58;96577.34;;;18.89;63.81
73024;BME280;61199;47.526;8.538;2023-07-31T02:13:25;96578.69;;;18.71;64.82
73024;BME280;61199;47.526;8.538;2023-07-31T02:15:51;96560.66;;;18.66;65.32
73024;BME280;61199;47.526;8.538;2023-07-31T02:18:18;96562.88;;;18.63;65.44
73024;BME280;61199;47.526;8.538;2023-07-31T02:20:49;96567.63;;;18.67;65.75
73024;BME280;61199;47.526;8.538;2023-07-31T02:23:16;96565.34;;;18.79;65.48
73024;BME280;61199;47.526;8.538;2023-07-31T02:25:42;96559.69;;;18.82;65.68
73024;BME280;61199;47.526;8.538;2023-07-31T02:28:08;96553.53;;;18.81;64.84
73024;BME280;61199;47.526;8.538;2023-07-31T02:30:35;96551.81;;;18.74;64.11
73024;BME280;61199;47.526;8.538;2023-07-31T02:33:01;96563.59;;;18.71;64.45
73024;BME280;61199;47.526;8.538;2023-07-31T02:35:28;96562.59;;;18.72;64.81
73024;BME280;61199;47.526;8.538;2023-07-31T02:37:54;96561.25;;;18.76;64.27
73024;BME280;61199;47.526;8.538;2023-07-31T02:40:21;96562.06;;;18.77;64.84
73024;BME280;61199;47.526;8.538;2023-07-31T02:42:47;96561.97;;;18.70;64.74
73024;BME280;61199;47.526;8.538;2023-07-31T02:45:14;96561.78;;;18.72;64.71
73024;BME280;61199;47.526;8.538;2023-07-31T02:47:40;96559.69;;;18.67;64.98
73024;BME280;61199;47.526;8.538;2023-07-31T02:50:07;96566.50;;;18.62;65.47
73024;BME280;61199;47.526;8.538;2023-07-31T02:52:33;96565.22;;;18.58;65.66
73024;BME280;61199;47.526;8.538;2023-07-31T02:54:59;96556.00;;;18.54;65.60
73024;BME280;61199;47.526;8.538;2023-07-31T02:57:26;96562.19;;;18.61;66.12
73024;BME280;61199;47.526;8.538;2023-07-31T02:59:52;96561.13;;;18.70;65.38
73024;BME280;61199;47.526;8.538;2023-07-31T03:02:19;96557.38;;;18.64;65.99
73024;BME280;61199;47.526;8.538;2023-07-31T03:04:45;96555.25;;;18.60;66.04
73024;BME280;61199;47.526;8.538;2023-07-31T03:07:12;96557.09;;;18.59;66.85
73024;BME280;61199;47.526;8.538;2023-07-31T03:09:38;96552.66;;;18.52;66.54
73024;BME280;61199;47.526;8.538;2023-07-31T03:12:05;96552.66;;;18.52;66.47
73024;BME280;61199;47.526;8.538;2023-07-31T03:14:31;96557.41;;;18.42;66.37
73024;BME280;61199;47.526;8.538;2023-07-31T03:16:59;96567.09;;;18.35;66.63
73024;BME280;61199;47.526;8.538;2023-07-31T03:19:25;96557.84;;;18.31;66.59
73024;BME280;61199;47.526;8.538;2023-07-31T03:21:52;96556.50;;;18.35;66.87
73024;BME280;61199;47.526;8.538;2023-07-31T03:24:18;96558.47;;;18.33;66.85
73024;BME280;61199;47.526;8.538;2023-07-31T03:26:44;96561.34;;;18.31;66.74
73024;BME280;61199;47.526;8.538;2023-07-31T03:29:11;96556.69;;;18.25;66.95
73024;BME280;61199;47.526;8.538;2023-07-31T03:31:37;96560.41;;;18.16;66.88
73024;BME280;61199;47.526;8.538;2023-07-31T03:34:04;96561.38;;;18.23;66.62
73024;BME280;61199;47.526;8.538;2023-07-31T03:36:30;96547.09;;;18.24;66.52
73024;BME280;61199;47.526;8.538;2023-07-31T03:38:57;96553.66;;;18.36;65.88
73024;BME280;61199;47.526;8.538;2023-07-31T03:41:23;96567.22;;;18.41;65.77
73024;BME280;61199;47.526;8.538;2023-07-31T03:43:51;96570.72;;;18.34;65.85
73024;BME280;61199;47.526;8.538;2023-07-31T03:46:18;96577.44;;;18.22;66.59
73024;BME280;61199;47.526;8.538;2023-07-31T03:48:44;96581.84;;;18.07;67.30
73024;BME280;61199;47.526;8.538;2023-07-31T03:51:11;96580.50;;;18.11;66.79
73024;BME280;61199;47.526;8.538;2023-07-31T03:53:37;96590.13;;;18.12;66.71
73024;BME280;61199;47.526;8.538;2023-07-31T03:56:04;96598.75;;;18.06;66.79
73024;BME280;61199;47.526;8.538;2023-07-31T03:58:31;96591.81;;;18.05;66.92
73024;BME280;61199;47.526;8.538;2023-07-31T04:00:57;96589.28;;;18.11;66.36
73024;BME280;61199;47.526;8.538;2023-07-31T04:03:24;96589.47;;;18.10;66.76
73024;BME280;61199;47.526;8.538;2023-07-31T04:05:50;96591.47;;;18.08;66.89
73024;BME280;61199;47.526;8.538;2023-07-31T04:08:16;96594.50;;;17.97;67.01
73024;BME280;61199;47.526;8.538;2023-07-31T04:10:43;96594.94;;;18.08;66.87
73024;BME280;61199;47.526;8.538;2023-07-31T04:13:09;96591.47;;;18.08;66.78
73024;BME280;61199;47.526;8.538;2023-07-31T04:15:36;96598.13;;;18.04;66.53
73024;BME280;61199;47.526;8.538;2023-07-31T04:18:02;96597.47;;;18.02;66.86
73024;BME280;61199;47.526;8.538;2023-07-31T04:20:29;96595.22;;;17.91;66.72
73024;BME280;61199;47.526;8.538;2023-07-31T04:22:55;96596.28;;;17.82;67.26
73024;BME280;61199;47.526;8.538;2023-07-31T04:25:21;96597.13;;;17.75;67.29
73024;BME280;61199;47.526;8.538;2023-07-31T04:27:48;96591.63;;;17.84;67.60
73024;BME280;61199;47.526;8.538;2023-07-31T04:30:14;96598.22;;;17.88;67.05
73024;BME280;61199;47.526;8.538;2023-07-31T04:32:41;96596.53;;;17.95;66.98
73024;BME280;61199;47.526;8.538;2023-07-31T04:35:07;96596.53;;;17.95;67.11
73024;BME280;61199;47.526;8.538;2023-07-31T04:37:34;96597.00;;;17.98;66.94
73024;BME280;61199;47.526;8.538;2023-07-31T04:40:00;96587.56;;;17.96;66.90
73024;BME280;61199;47.526;8.538;2023-07-31T04:42:27;96581.97;;;17.91;67.17
73024;BME280;61199;47.526;8.538;2023-07-31T04:44:53;96580.78;;;17.93;66.97
73024;BME280;61199;47.526;8.538;2023-07-31T04:47:19;96579.34;;;17.91;67.09
73024;BME280;61199;47.526;8.538;2023-07-31T04:49:46;96585.22;;;18.01;67.27
73024;BME280;61199;47.526;8.538;2023-07-31T04:52:12;96588.88;;;18.00;66.78
73024;BME280;61199;47.526;8.538;2023-07-31T04:54:39;96586.28;;;17.92;66.99
73024;BME280;61199;47.526;8.538;2023-07-31T04:57:05;96589.88;;;17.99;66.63
73024;BME280;61199;47.526;8.538;2023-07-31T04:59:32;96589.03;;;17.98;67.18
73024;BME280;61199;47.526;8.538;2023-07-31T05:01:59;96583.22;;;18.03;67.30
73024;BME280;61199;47.526;8.538;2023-07-31T05:04:25;96583.06;;;18.04;67.16
73024;BME280;61199;47.526;8.538;2023-07-31T05:06:52;96569.91;;;18.11;67.07
73024;BME280;61199;47.526;8.538;2023-07-31T05:09:18;96574.84;;;18.14;67.34
73024;BME280;61199;47.526;8.538;2023-07-31T05:11:44;96581.09;;;18.21;66.94
73024;BME280;61199;47.526;8.538;2023-07-31T05:14:11;96582.38;;;18.25;67.72
73024;BME280;61199;47.526;8.538;2023-07-31T05:16:37;96579.09;;;18.23;67.27
73024;BME280;61199;47.526;8.538;2023-07-31T05:19:04;96582.38;;;18.25;67.07
73024;BME280;61199;47.526;8.538;2023-07-31T05:21:31;96581.94;;;18.21;66.88
73024;BME280;61199;47.526;8.538;2023-07-31T05:23:57;96581.25;;;18.19;67.04
73024;BME280;61199;47.526;8.538;2023-07-31T05:26:23;96590.16;;;18.26;66.60
73024;BME280;61199;47.526;8.538;2023-07-31T05:28:50;96586.03;;;18.24;66.49
73024;BME280;61199;47.526;8.538;2023-07-31T05:31:17;96586.22;;;18.30;66.67
73024;BME280;61199;47.526;8.538;2023-07-31T05:33:43;96591.72;;;18.21;66.98
73024;BME280;61199;47.526;8.538;2023-07-31T05:36:10;96592.66;;;18.28;67.06
73024;BME280;61199;47.526;8.538;2023-07-31T05:38:36;96593.97;;;18.32;66.98
73024;BME280;61199;47.526;8.538;2023-07-31T05:41:02;96586.03;;;18.24;67.12
73024;BME280;61199;47.526;8.538;2023-07-31T05:43:29;96583.72;;;18.29;66.60
73024;BME280;61199;47.526;8.538;2023-07-31T05:45:55;96595.63;;;18.33;66.35
73024;BME280;61199;47.526;8.538;2023-07-31T05:48:22;96591.16;;;18.33;66.37
73024;BME280;61199;47.526;8.538;2023-07-31T05:50:48;96600.22;;;18.39;66.25
73024;BME280;61199;47.526;8.538;2023-07-31T05:53:15;96600.78;;;18.49;65.86
73024;BME280;61199;47.526;8.538;2023-07-31T05:55:41;96597.59;;;18.53;66.03
73024;BME280;61199;47.526;8.538;2023-07-31T05:58:08;96598.78;;;18.51;65.38
73024;BME280;61199;47.526;8.538;2023-07-31T06:00:34;96591.25;;;18.40;65.54
73024;BME280;61199;47.526;8.538;2023-07-31T06:03:00;96595.28;;;18.36;65.44
73024;BME280;61199;47.526;8.538;2023-07-31T06:05:27;96588.31;;;18.35;65.33
73024;BME280;61199;47.526;8.538;2023-07-31T06:07:56;96587.78;;;18.17;66.09
73024;BME280;61199;47.526;8.538;2023-07-31T06:10:23;96588.06;;;18.22;66.08
73024;BME280;61199;47.526;8.538;2023-07-31T06:12:49;96579.44;;;18.20;66.21
73024;BME280;61199;47.526;8.538;2023-07-31T06:15:16;96585.22;;;18.23;65.95
73024;BME280;61199;47.526;8.538;2023-07-31T06:17:42;96583.34;;;18.09;66.13
73024;BME280;61199;47.526;8.538;2023-07-31T06:20:09;96591.16;;;18.03;66.05
73024;BME280;61199;47.526;8.538;2023-07-31T06:22:36;96584.91;;;17.96;66.04
73024;BME280;61199;47.526;8.538;2023-07-31T06:25:02;96577.97;;;17.95;66.31
73024;BME280;61199;47.526;8.538;2023-07-31T06:27:29;96577.22;;;17.87;65.99
73024;BME280;61199;47.526;8.538;2023-07-31T06:29:56;96574.03;;;17.91;66.54
73024;BME280;61199;47.526;8.538;2023-07-31T06:32:22;96587.31;;;17.83;66.15
73024;BME280;61199;47.526;8.538;2023-07-31T06:34:49;96581.63;;;17.94;65.84
73024;BME280;61199;47.526;8.538;2023-07-31T06:37:15;96577.69;;;17.90;65.03
73024;BME280;61199;47.526;8.538;2023-07-31T06:39:42;96583.69;;;17.84;64.83
73024;BME280;61199;47.526;8.538;2023-07-31T06:42:09;96588.97;;;17.84;65.45
73024;BME280;61199;47.526;8.538;2023-07-31T06:44:35;96591.94;;;17.89;65.50
73024;BME280;61199;47.526;8.538;2023-07-31T06:47:02;96584.97;;;17.88;65.20
73024;BME280;61199;47.526;8.538;2023-07-31T06:49:28;96581.34;;;17.89;65.51
73024;BME280;61199;47.526;8.538;2023-07-31T06:51:55;96572.22;;;17.83;65.23
73024;BME280;61199;47.526;8.538;2023-07-31T06:54:21;96578.28;;;18.00;65.35
73024;BME280;61199;47.526;8.538;2023-07-31T06:56:47;96558.94;;;17.91;64.86
73024;BME280;61199;47.526;8.538;2023-07-31T06:59:14;96559.66;;;18.08;64.28
73024;BME280;61199;47.526;8.538;2023-07-31T07:01:40;96554.22;;;18.01;64.62
73024;BME280;61199;47.526;8.538;2023-07-31T07:04:07;96550.19;;;18.13;64.53
73024;BME280;61199;47.526;8.538;2023-07-31T07:06:33;96549.50;;;18.11;63.85
73024;BME280;61199;47.526;8.538;2023-07-31T07:09:00;96553.06;;;18.04;64.03
73024;BME280;61199;47.526;8.538;2023-07-31T07:11:27;96551.63;;;18.16;64.81
73024;BME280;61199;47.526;8.538;2023-07-31T07:13:53;96548.25;;;18.30;63.84
73024;BME280;61199;47.526;8.538;2023-07-31T07:16:20;96551.56;;;18.24;62.83
73024;BME280;61199;47.526;8.538;2023-07-31T07:18:46;96542.69;;;18.17;62.71
73024;BME280;61199;47.526;8.538;2023-07-31T07:21:29;96537.19;;;17.96;63.33
73024;BME280;61199;47.526;8.538;2023-07-31T07:23:56;96535.72;;;18.16;63.75
73024;BME280;61199;47.526;8.538;2023-07-31T07:26:22;96542.25;;;18.28;63.00
73024;BME280;61199;47.526;8.538;2023-07-31T07:28:49;96536.78;;;18.29;63.20
73024;BME280;61199;47.526;8.538;2023-07-31T07:31:15;96539.84;;;18.18;63.37
73024;BME280;61199;47.526;8.538;2023-07-31T07:33:42;96544.81;;;18.44;63.46
73024;BME280;61199;47.526;8.538;2023-07-31T07:36:09;96552.22;;;18.48;63.37
73024;BME280;61199;47.526;8.538;2023-07-31T07:38:36;96551.28;;;18.41;63.17
73024;BME280;61199;47.526;8.538;2023-07-31T07:41:03;96551.69;;;18.53;63.76
73024;BME280;61199;47.526;8.538;2023-07-31T07:43:29;96551.91;;;18.29;62.43
73024;BME280;61199;47.526;8.538;2023-07-31T07:45:56;96562.00;;;18.48;62.93
73024;BME280;61199;47.526;8.538;2023-07-31T07:48:22;96558.66;;;18.54;62.60
73024;BME280;61199;47.526;8.538;2023-07-31T07:50:48;96559.44;;;18.54;62.49
73024;BME280;61199;47.526;8.538;2023-07-31T07:53:15;96560.78;;;18.36;61.81
73024;BME280;61199;47.526;8.538;2023-07-31T07:55:42;96565.31;;;18.50;61.66
73024;BME280;61199;47.526;8.538;2023-07-31T07:58:08;96567.69;;;18.45;61.66
73024;BME280;61199;47.526;8.538;2023-07-31T08:00:34;96559.66;;;18.53;62.07
73024;BME280;61199;47.526;8.538;2023-07-31T08:03:01;96556.19;;;18.67;61.52
73024;BME280;61199;47.526;8.538;2023-07-31T08:05:27;96563.16;;;18.97;61.26
73024;BME280;61199;47.526;8.538;2023-07-31T08:07:57;96549.97;;;18.89;59.49
73024;BME280;61199;47.526;8.538;2023-07-31T08:10:23;96549.97;;;18.89;60.28
73024;BME280;61199;47.526;8.538;2023-07-31T08:12:50;96541.91;;;18.82;61.32
73024;BME280;61199;47.526;8.538;2023-07-31T08:15:16;96531.84;;;18.92;60.01
73024;BME280;61199;47.526;8.538;2023-07-31T08:17:42;96526.28;;;19.02;59.56
73024;BME280;61199;47.526;8.538;2023-07-31T08:20:09;96536.53;;;19.05;59.60
73024;BME280;61199;47.526;8.538;2023-07-31T08:22:36;96513.00;;;19.31;59.27
73024;BME280;61199;47.526;8.538;2023-07-31T08:25:03;96528.44;;;19.42;57.92
73024;BME280;61199;47.526;8.538;2023-07-31T08:27:29;96519.84;;;19.40;57.55
73024;BME280;61199;47.526;8.538;2023-07-31T08:29:56;96532.31;;;19.39;57.69
73024;BME280;61199;47.526;8.538;2023-07-31T08:32:22;96531.59;;;19.16;58.47
73024;BME280;61199;47.526;8.538;2023-07-31T08:34:48;96520.97;;;19.31;58.28
73024;BME280;61199;47.526;8.538;2023-07-31T08:37:15;96528.94;;;19.31;57.04
73024;BME280;61199;47.526;8.538;2023-07-31T08:39:41;96521.13;;;19.44;58.38
73024;BME280;61199;47.526;8.538;2023-07-31T08:42:08;96519.88;;;19.61;57.82
73024;BME280;61199;47.526;8.538;2023-07-31T08:44:36;96523.56;;;19.60;57.28
73024;BME280;61199;47.526;8.538;2023-07-31T08:47:03;96514.28;;;19.70;56.46
73024;BME280;61199;47.526;8.538;2023-07-31T08:49:31;96505.22;;;19.65;56.28
73024;BME280;61199;47.526;8.538;2023-07-31T08:51:57;96502.50;;;19.44;57.46
73024;BME280;61199;47.526;8.538;2023-07-31T08:54:24;96492.56;;;19.67;55.66
73024;BME280;61199;47.526;8.538;2023-07-31T08:56:52;96504.44;;;19.50;55.72
73024;BME280;61199;47.526;8.538;2023-07-31T08:59:19;96507.50;;;19.68;55.86
73024;BME280;61199;47.526;8.538;2023-07-31T09:01:50;96500.88;;;19.78;55.72
73024;BME280;61199;47.526;8.538;2023-07-31T09:04:19;96507.72;;;19.87;56.01
73024;BME280;61199;47.526;8.538;2023-07-31T09:06:47;96502.06;;;19.76;55.14
73024;BME280;61199;47.526;8.538;2023-07-31T09:09:14;96497.88;;;19.88;54.97
73024;BME280;61199;47.526;8.538;2023-07-31T09:11:41;96494.13;;;20.03;54.29
73024;BME280;61199;47.526;8.538;2023-07-31T09:14:08;96486.16;;;20.18;53.62
73024;BME280;61199;47.526;8.538;2023-07-31T09:16:35;96485.50;;;20.16;53.65
73024;BME280;61199;47.526;8.538;2023-07-31T09:19:02;96489.84;;;20.02;53.56
73024;BME280;61199;47.526;8.538;2023-07-31T09:21:29;96485.34;;;20.03;53.36
73024;BME280;61199;47.526;8.538;2023-07-31T09:23:57;96480.97;;;20.10;54.29
73024;BME280;61199;47.526;8.538;2023-07-31T09:26:34;96487.72;;;20.12;53.71
73024;BME280;61199;47.526;8.538;2023-07-31T09:29:04;96480.38;;;20.14;52.96
73024;BME280;61199;47.526;8.538;2023-07-31T09:31:41;96484.34;;;20.25;52.90
73024;BME280;61199;47.526;8.538;2023-07-31T09:34:08;96488.75;;;20.39;52.57
73024;BME280;61199;47.526;8.538;2023-07-31T09:36:48;96501.72;;;20.21;52.89
73024;BME280;61199;47.526;8.538;2023-07-31T09:39:16;96508.50;;;20.23;53.39
73024;BME280;61199;47.526;8.538;2023-07-31T09:41:46;96485.66;;;20.35;53.40
73024;BME280;61199;47.526;8.538;2023-07-31T09:44:13;96477.16;;;20.46;53.18
73024;BME280;61199;47.526;8.538;2023-07-31T09:46:39;96477.31;;;20.17;52.52
73024;BME280;61199;47.526;8.538;2023-07-31T09:49:08;96478.00;;;20.26;52.66
73024;BME280;61199;47.526;8.538;2023-07-31T09:51:36;96488.59;;;20.19;53.27
73024;BME280;61199;47.526;8.538;2023-07-31T09:54:15;96466.75;;;20.03;53.81
73024;BME280;61199;47.526;8.538;2023-07-31T09:56:43;96465.78;;;20.31;54.20
73024;BME280;61199;47.526;8.538;2023-07-31T09:59:15;96464.09;;;20.51;53.36
73024;BME280;61199;47.526;8.538;2023-07-31T10:01:43;96456.53;;;20.55;54.27
73024;BME280;61199;47.526;8.538;2023-07-31T10:04:10;96457.91;;;20.78;53.63
73024;BME280;61199;47.526;8.538;2023-07-31T10:06:38;96459.47;;;20.66;53.66
73024;BME280;61199;47.526;8.538;2023-07-31T10:09:09;96456.28;;;20.50;53.26
73024;BME280;61199;47.526;8.538;2023-07-31T10:11:38;96451.59;;;20.52;53.24
73024;BME280;61199;47.526;8.538;2023-07-31T10:14:07;96452.84;;;20.56;52.90
73024;BME280;61199;47.526;8.538;2023-07-31T10:16:38;96435.44;;;20.53;53.70
73024;BME280;61199;47.526;8.538;2023-07-31T10:19:06;96437.25;;;20.53;52.69
73024;BME280;61199;47.526;8.538;2023-07-31T10:21:34;96425.59;;;20.54;53.05
73024;BME280;61199;47.526;8.538;2023-07-31T10:24:04;96417.22;;;20.57;52.94
73024;BME280;61199;47.526;8.538;2023-07-31T10:26:32;96406.03;;;20.68;51.99
73024;BME280;61199;47.526;8.538;2023-07-31T10:29:01;96409.56;;;20.81;52.92
73024;BME280;61199;47.526;8.538;2023-07-31T10:31:28;96407.41;;;20.91;52.27
73024;BME280;61199;47.526;8.538;2023-07-31T10:33:57;96392.31;;;21.11;52.15
73024;BME280;61199;47.526;8.538;2023-07-31T10:36:25;96398.75;;;21.42;51.95
73024;BME280;61199;47.526;8.538;2023-07-31T10:38:55;96389.53;;;21.51;51.34
73024;BME280;61199;47.526;8.538;2023-07-31T10:41:31;96390.50;;;21.18;51.47
73024;BME280;61199;47.526;8.538;2023-07-31T10:44:01;96392.53;;;21.10;51.98
73024;BME280;61199;47.526;8.538;2023-07-31T10:46:28;96393.75;;;21.07;51.88
73024;BME280;61199;47.526;8.538;2023-07-31T10:49:00;96377.34;;;21.10;51.32
73024;BME280;61199;47.526;8.538;2023-07-31T10:51:36;96377.59;;;21.21;51.90
73024;BME280;61199;47.526;8.538;2023-07-31T10:54:13;96382.53;;;21.31;51.98
73024;BME280;61199;47.526;8.538;2023-07-31T10:56:45;96373.78;;;21.56;52.04
73024;BME280;61199;47.526;8.538;2023-07-31T10:59:12;96364.38;;;21.73;50.33
73024;BME280;61199;47.526;8.538;2023-07-31T11:02:06;96369.31;;;21.70;50.79
73024;BME280;61199;47.526;8.538;2023-07-31T11:05:06;96350.03;;;21.74;50.63
73024;BME280;61199;47.526;8.538;2023-07-31T11:07:48;96341.81;;;21.82;50.51
73024;BME280;61199;47.526;8.538;2023-07-31T11:10:18;96333.19;;;22.00;49.54
73024;BME280;61199;47.526;8.538;2023-07-31T11:12:45;96349.00;;;22.01;50.04
73024;BME280;61199;47.526;8.538;2023-07-31T11:15:13;96353.69;;;21.99;49.87
73024;BME280;61199;47.526;8.538;2023-07-31T11:17:40;96331.94;;;22.02;49.79
73024;BME280;61199;47.526;8.538;2023-07-31T11:20:07;96333.34;;;22.24;49.87
73024;BME280;61199;47.526;8.538;2023-07-31T11:22:36;96324.69;;;22.48;49.68
73024;BME280;61199;47.526;8.538;2023-07-31T11:25:03;96335.78;;;22.52;49.21
73024;BME280;61199;47.526;8.538;2023-07-31T11:27:30;96346.66;;;22.50;49.27
73024;BME280;61199;47.526;8.538;2023-07-31T11:30:01;96346.88;;;22.42;49.83
73024;BME280;61199;47.526;8.538;2023-07-31T11:32:28;96342.19;;;22.05;49.56
73024;BME280;61199;47.526;8.538;2023-07-31T11:34:55;96327.59;;;22.27;49.56
73024;BME280;61199;47.526;8.538;2023-07-31T11:37:22;96336.00;;;22.44;48.90
73024;BME280;61199;47.526;8.538;2023-07-31T11:40:00;96327.53;;;22.53;48.33
73024;BME280;61199;47.526;8.538;2023-07-31T11:42:27;96319.91;;;22.70;48.20
73024;BME280;61199;47.526;8.538;2023-07-31T11:44:53;96320.66;;;22.83;48.02
73024;BME280;61199;47.526;8.538;2023-07-31T11:47:20;96315.69;;;22.93;47.99
73024;BME280;61199;47.526;8.538;2023-07-31T11:49:47;96308.16;;;23.21;47.38
73024;BME280;61199;47.526;8.538;2023-07-31T11:52:15;96311.84;;;23.20;47.59
73024;BME280;61199;47.526;8.538;2023-07-31T11:54:42;96314.22;;;23.35;47.28
73024;BME280;61199;47.526;8.538;2023-07-31T11:57:08;96313.84;;;23.31;47.06
73024;BME280;61199;47.526;8.538;2023-07-31T11:59:35;96321.44;;;22.90;48.86
73024;BME280;61199;47.526;8.538;2023-07-31T12:02:02;96319.06;;;23.13;48.14
73024;BME280;61199;47.526;8.538;2023-07-31T12:04:29;96301.56;;;23.24;47.22
73024;BME280;61199;47.526;8.538;2023-07-31T12:06:55;96292.97;;;23.15;45.39
73024;BME280;61199;47.526;8.538;2023-07-31T12:09:24;96301.03;;;23.02;46.41
73024;BME280;61199;47.526;8.538;2023-07-31T12:11:52;96284.75;;;23.10;46.45
73024;BME280;61199;47.526;8.538;2023-07-31T12:14:28;96277.78;;;23.40;46.69
73024;BME280;61199;47.526;8.538;2023-07-31T12:17:00;96268.19;;;23.26;46.55
73024;BME280;61199;47.526;8.538;2023-07-31T12:19:27;96279.34;;;23.23;46.47
73024;BME280;61199;47.526;8.538;2023-07-31T12:21:58;96276.06;;;23.21;45.23
73024;BME280;61199;47.526;8.538;2023-07-31T12:24:28;96281.88;;;23.05;46.29
73024;BME280;61199;47.526;8.538;2023-07-31T12:26:55;96275.88;;;23.16;46.91
73024;BME280;61199;47.526;8.538;2023-07-31T12:29:21;96269.88;;;23.21;45.78
73024;BME280;61199;47.526;8.538;2023-07-31T12:31:47;96258.00;;;23.17;46.32
73024;BME280;61199;47.526;8.538;2023-07-31T12:34:16;96259.22;;;23.45;45.99
73024;BME280;61199;47.526;8.538;2023-07-31T12:36:44;96255.94;;;23.68;45.16
73024;BME280;61199;47.526;8.538;2023-07-31T12:39:11;96262.13;;;23.93;45.39
73024;BME280;61199;47.526;8.538;2023-07-31T12:41:37;96256.94;;;23.98;44.66
73024;BME280;61199;47.526;8.538;2023-07-31T12:44:04;96242.72;;;24.15;43.57
73024;BME280;61199;47.526;8.538;2023-07-31T12:46:30;96257.00;;;24.27;43.88
73024;BME280;61199;47.526;8.538;2023-07-31T12:48:57;96238.88;;;23.93;43.68
73024;BME280;61199;47.526;8.538;2023-07-31T12:51:23;96239.94;;;23.86;44.60
73024;BME280;61199;47.526;8.538;2023-07-31T12:53:50;96241.41;;;24.24;44.04
73024;BME280;61199;47.526;8.538;2023-07-31T12:56:16;96243.41;;;24.29;43.78
73024;BME280;61199;47.526;8.538;2023-07-31T12:58:43;96224.00;;;24.15;43.62
73024;BME280;61199;47.526;8.538;2023-07-31T13:01:10;96219.59;;;24.03;44.46
73024;BME280;61199;47.526;8.538;2023-07-31T13:03:36;96215.84;;;24.10;44.63
73024;BME280;61199;47.526;8.538;2023-07-31T13:06:03;96192.91;;;24.14;44.05
73024;BME280;61199;47.526;8.538;2023-07-31T13:08:31;96204.22;;;24.16;44.56
73024;BME280;61199;47.526;8.538;2023-07-31T13:10:58;96208.00;;;24.27;44.07